createdAt,value
2019-04-14T00:00:49.495Z,0.00
2019-04-14T00:01:48.209Z,0.00
2019-04-14T00:02:49.166Z,0.00
2019-04-14T00:03:48.275Z,0.00
2019-04-14T00:04:48.707Z,0.00
2019-04-14T00:05:48.156Z,0.00
2019-04-14T00:06:48.394Z,0.00
2019-04-14T00:07:48.137Z,0.00
2019-04-14T00:08:48.144Z,0.00
2019-04-14T00:09:48.226Z,0.00
2019-04-14T00:10:48.658Z,0.00
2019-04-14T00:11:48.234Z,0.00
2019-04-14T00:12:49.210Z,0.00
2019-04-14T00:13:48.126Z,0.00
2019-04-14T00:14:49.110Z,0.00
2019-04-14T00:15:50.467Z,0.00
2019-04-14T00:16:49.013Z,0.00
2019-04-14T00:17:48.028Z,0.00
2019-04-14T00:18:49.082Z,0.00
2019-04-14T00:19:48.007Z,0.00
2019-04-14T00:20:49.121Z,0.00
2019-04-14T00:21:48.023Z,0.00
2019-04-14T00:22:49.016Z,0.00
2019-04-14T00:23:47.965Z,0.00
2019-04-14T00:24:48.935Z,0.00
2019-04-14T00:25:47.948Z,0.00
2019-04-14T00:26:48.799Z,0.00
2019-04-14T00:27:47.964Z,0.00
2019-04-14T00:28:49.034Z,0.00
2019-04-14T00:29:48.008Z,0.00
2019-04-14T00:30:49.039Z,0.00
2019-04-14T00:31:50.655Z,0.00
2019-04-14T00:32:48.804Z,0.00
2019-04-14T00:33:47.894Z,0.00
2019-04-14T00:34:48.534Z,0.00
2019-04-14T00:35:47.836Z,0.00
2019-04-14T00:36:48.117Z,0.00
2019-04-14T00:37:48.998Z,0.00
2019-04-14T00:38:47.900Z,0.00
2019-04-14T00:39:48.916Z,0.00
2019-04-14T00:40:47.783Z,0.00
2019-04-14T00:41:53.464Z,0.00
2019-04-14T00:42:49.500Z,0.00
2019-04-14T00:43:48.486Z,0.00
2019-04-14T00:44:47.748Z,0.00
2019-04-14T00:45:52.812Z,0.00
2019-04-14T00:46:49.602Z,0.00
2019-04-14T00:47:55.642Z,0.00
2019-04-14T00:48:49.679Z,0.00
2019-04-14T00:49:48.738Z,0.00
2019-04-14T00:50:47.696Z,0.00
2019-04-14T00:51:48.517Z,0.00
2019-04-14T00:52:48.033Z,0.00
2019-04-14T00:53:47.649Z,0.00
2019-04-14T00:54:47.792Z,0.00
2019-04-14T00:55:48.737Z,0.00
2019-04-14T00:56:47.708Z,0.00
2019-04-14T00:57:48.668Z,0.00
2019-04-14T00:58:47.640Z,0.00
2019-04-14T00:59:48.678Z,0.00
2019-04-14T01:00:47.586Z,0.00
2019-04-14T01:01:48.407Z,0.00
2019-04-14T01:02:47.572Z,0.00
2019-04-14T01:03:48.277Z,0.00
2019-04-14T01:04:47.565Z,0.00
2019-04-14T01:05:48.192Z,0.00
2019-04-14T01:06:47.506Z,0.00
2019-04-14T01:07:48.013Z,0.00
2019-04-14T01:08:47.484Z,0.00
2019-04-14T01:09:48.767Z,0.00
2019-04-14T01:10:47.708Z,0.00
2019-04-14T01:11:48.750Z,0.00
2019-04-14T01:12:47.500Z,0.00
2019-04-14T01:13:48.548Z,0.00
2019-04-14T01:14:47.510Z,0.00
2019-04-14T01:15:57.251Z,0.00
2019-04-14T01:16:49.410Z,0.00
2019-04-14T01:17:48.472Z,0.00
2019-04-14T01:18:47.390Z,0.00
2019-04-14T01:19:48.429Z,0.00
2019-04-14T01:20:47.357Z,0.00
2019-04-14T01:21:48.123Z,0.00
2019-04-14T01:22:47.432Z,0.00
2019-04-14T01:23:48.013Z,0.00
2019-04-14T01:24:47.332Z,0.00
2019-04-14T01:25:47.737Z,0.00
2019-04-14T01:26:48.427Z,0.00
2019-04-14T01:27:47.440Z,0.00
2019-04-14T01:28:48.293Z,0.00
2019-04-14T01:29:47.378Z,0.00
2019-04-14T01:30:48.042Z,0.00
2019-04-14T01:31:47.327Z,0.00
2019-04-14T01:32:47.936Z,0.00
2019-04-14T01:33:47.217Z,0.00
2019-04-14T01:34:47.651Z,0.00
2019-04-14T01:35:47.251Z,0.00
2019-04-14T01:36:47.519Z,0.00
2019-04-14T01:37:47.206Z,0.00
2019-04-14T01:38:47.175Z,0.00
2019-04-14T01:39:48.173Z,0.00
2019-04-14T01:40:47.179Z,0.00
2019-04-14T01:41:47.824Z,0.00
2019-04-14T01:42:48.402Z,0.00
2019-04-14T01:43:47.463Z,0.00
2019-04-14T01:44:48.076Z,0.00
2019-04-14T01:45:59.774Z,0.00
2019-04-14T01:46:48.112Z,0.00
2019-04-14T01:47:47.097Z,0.00
2019-04-14T01:48:47.519Z,0.00
2019-04-14T01:49:47.059Z,0.00
2019-04-14T01:50:47.391Z,0.00
2019-04-14T01:51:47.031Z,0.00
2019-04-14T01:52:47.949Z,0.00
2019-04-14T01:53:47.008Z,0.00
2019-04-14T01:54:47.328Z,0.00
2019-04-14T01:55:46.984Z,0.00
2019-04-14T01:56:47.202Z,0.00
2019-04-14T01:57:48.142Z,0.00
2019-04-14T01:58:46.994Z,0.00
2019-04-14T01:59:48.171Z,0.00
2019-04-14T02:00:46.932Z,0.00
2019-04-14T02:01:47.819Z,0.00
2019-04-14T02:02:46.928Z,0.00
2019-04-14T02:03:47.790Z,0.00
2019-04-14T02:04:46.967Z,0.00
2019-04-14T02:05:47.491Z,0.00
2019-04-14T02:06:46.872Z,0.00
2019-04-14T02:07:47.261Z,0.00
2019-04-14T02:08:47.956Z,0.00
2019-04-14T02:09:46.983Z,0.00
2019-04-14T02:10:47.870Z,0.00
2019-04-14T02:11:46.825Z,0.00
2019-04-14T02:12:47.366Z,0.00
2019-04-14T02:13:46.811Z,0.00
2019-04-14T02:14:47.425Z,0.00
2019-04-14T02:15:46.775Z,0.00
2019-04-14T02:16:52.242Z,0.00
2019-04-14T02:17:48.171Z,0.00
2019-04-14T02:18:47.115Z,0.00
2019-04-14T02:19:48.006Z,0.00
2019-04-14T02:20:46.879Z,0.00
2019-04-14T02:21:47.811Z,0.00
2019-04-14T02:22:46.747Z,0.00
2019-04-14T02:23:47.537Z,0.00
2019-04-14T02:24:46.681Z,0.00
2019-04-14T02:25:47.165Z,0.00
2019-04-14T02:26:47.931Z,0.00
2019-04-14T02:27:47.221Z,0.00
2019-04-14T02:28:46.679Z,0.00
2019-04-14T02:29:47.383Z,0.00
2019-04-14T02:30:57.230Z,0.00
2019-04-14T02:32:17.571Z,0.00
2019-04-14T02:33:18.141Z,0.00
2019-04-14T02:34:17.062Z,0.00
2019-04-14T02:35:26.022Z,0.00
2019-04-14T02:37:26.307Z,0.00
2019-04-14T02:38:24.816Z,0.00
2019-04-14T02:39:24.164Z,0.00
2019-04-14T02:40:21.680Z,0.00
2019-04-14T02:41:18.877Z,0.00
2019-04-14T02:43:27.590Z,0.00
2019-04-14T02:44:23.007Z,0.00
2019-04-14T02:45:19.434Z,0.00
2019-04-14T02:46:11.757Z,0.00
2019-04-14T02:47:47.243Z,0.00
2019-04-14T02:48:33.428Z,0.00
2019-04-14T02:49:16.918Z,0.00
2019-04-14T02:50:12.159Z,0.00
2019-04-14T02:51:29.304Z,0.00
2019-04-14T02:52:11.609Z,0.00
2019-04-14T02:53:18.455Z,0.00
2019-04-14T02:54:20.064Z,0.00
2019-04-14T02:55:08.583Z,0.00
2019-04-14T02:56:15.995Z,0.00
2019-04-14T02:57:16.763Z,0.00
2019-04-14T02:58:20.499Z,0.00
2019-04-14T02:59:14.049Z,0.00
2019-04-14T03:00:19.484Z,0.00
2019-04-14T03:01:27.617Z,0.00
2019-04-14T03:02:30.352Z,0.00
2019-04-14T03:03:16.899Z,0.00
2019-04-14T03:04:16.903Z,0.00
2019-04-14T03:05:13.223Z,0.00
2019-04-14T03:06:12.194Z,0.00
2019-04-14T03:07:16.563Z,0.00
2019-04-14T03:08:16.984Z,0.00
2019-04-14T03:09:19.053Z,0.00
2019-04-14T03:10:17.913Z,0.00
2019-04-14T03:11:13.631Z,0.00
2019-04-14T03:12:14.569Z,0.00
2019-04-14T03:13:15.069Z,0.00
2019-04-14T03:14:15.688Z,0.00
2019-04-14T03:15:13.010Z,0.00
2019-04-14T03:16:13.806Z,0.00
2019-04-14T03:17:21.380Z,0.00
2019-04-14T03:19:18.309Z,0.00
2019-04-14T03:21:15.863Z,0.00
2019-04-14T03:22:23.645Z,0.00
2019-04-14T03:23:19.174Z,0.00
2019-04-14T03:24:09.390Z,0.00
2019-04-14T03:25:03.099Z,0.00
2019-04-14T03:26:15.367Z,0.00
2019-04-14T03:27:13.521Z,0.00
2019-04-14T03:28:12.675Z,0.00
2019-04-14T03:29:19.204Z,0.00
2019-04-14T03:30:34.003Z,0.00
2019-04-14T03:32:32.600Z,0.00
2019-04-14T03:33:32.300Z,0.00
2019-04-14T03:35:35.148Z,0.00
2019-04-14T03:36:44.227Z,0.00
2019-04-14T03:37:43.396Z,0.00
2019-04-14T03:38:18.600Z,0.00
2019-04-14T03:39:31.943Z,0.00
2019-04-14T03:40:12.313Z,0.00
2019-04-14T03:41:17.283Z,0.00
2019-04-14T03:43:22.578Z,0.00
2019-04-14T03:44:28.657Z,0.00
2019-04-14T03:45:17.043Z,0.00
2019-04-14T03:46:19.655Z,0.00
2019-04-14T03:47:17.510Z,0.00
2019-04-14T03:48:42.482Z,0.00
2019-04-14T03:50:17.508Z,0.00
2019-04-14T03:52:19.515Z,0.00
2019-04-14T03:53:15.829Z,0.00
2019-04-14T03:54:20.210Z,0.00
2019-04-14T03:55:04.112Z,0.00
2019-04-14T03:55:54.548Z,0.00
2019-04-14T03:56:46.860Z,0.00
2019-04-14T03:57:45.748Z,0.00
2019-04-14T03:58:46.505Z,0.00
2019-04-14T03:59:45.716Z,0.00
2019-04-14T04:00:46.539Z,0.00
2019-04-14T04:01:45.784Z,0.00
2019-04-14T04:02:46.605Z,0.00
2019-04-14T04:03:45.787Z,0.00
2019-04-14T04:04:46.704Z,0.00
2019-04-14T04:05:45.683Z,0.00
2019-04-14T04:06:46.406Z,0.00
2019-04-14T04:07:45.588Z,0.00
2019-04-14T04:08:46.458Z,0.00
2019-04-14T04:09:45.625Z,0.00
2019-04-14T04:10:46.471Z,0.00
2019-04-14T04:11:45.581Z,0.00
2019-04-14T04:12:46.541Z,0.00
2019-04-14T04:13:45.596Z,0.00
2019-04-14T04:14:46.407Z,0.00
2019-04-14T04:15:45.540Z,0.00
2019-04-14T04:16:46.186Z,0.00
2019-04-14T04:17:45.479Z,0.00
2019-04-14T04:18:56.158Z,4.00
2019-04-14T04:19:47.003Z,4.00
2019-04-14T04:20:45.608Z,0.00
2019-04-14T04:21:46.560Z,4.00
2019-04-14T04:22:45.638Z,4.00
2019-04-14T04:23:45.419Z,4.00
2019-04-14T04:24:45.529Z,8.00
2019-04-14T04:25:46.568Z,8.00
2019-04-14T04:26:45.391Z,12.00
2019-04-14T04:27:46.161Z,12.00
2019-04-14T04:28:45.365Z,16.00
2019-04-14T04:29:46.266Z,20.00
2019-04-14T04:30:45.361Z,20.00
2019-04-14T04:31:46.092Z,24.00
2019-04-14T04:32:45.321Z,32.00
2019-04-14T04:33:45.799Z,40.00
2019-04-14T04:34:45.308Z,52.00
2019-04-14T04:35:45.745Z,64.00
2019-04-14T04:36:46.354Z,76.00
2019-04-14T04:37:45.471Z,92.00
2019-04-14T04:38:46.330Z,108.00
2019-04-14T04:39:45.430Z,120.00
2019-04-14T04:40:46.148Z,136.00
2019-04-14T04:41:45.259Z,148.00
2019-04-14T04:42:45.814Z,160.00
2019-04-14T04:43:45.255Z,168.00
2019-04-14T04:44:46.140Z,184.00
2019-04-14T04:45:45.285Z,200.00
2019-04-14T04:46:45.942Z,220.00
2019-04-14T04:47:45.174Z,236.00
2019-04-14T04:48:58.313Z,252.00
2019-04-14T04:49:46.869Z,276.00
2019-04-14T04:50:45.390Z,308.00
2019-04-14T04:51:46.432Z,352.00
2019-04-14T04:52:45.217Z,396.00
2019-04-14T04:53:46.166Z,444.00
2019-04-14T04:54:45.188Z,480.00
2019-04-14T04:55:46.093Z,504.00
2019-04-14T04:56:45.086Z,544.00
2019-04-14T04:57:46.001Z,600.00
2019-04-14T04:58:45.638Z,660.00
2019-04-14T04:59:45.275Z,716.00
2019-04-14T05:00:48.486Z,756.00
2019-04-14T05:01:47.274Z,784.00
2019-04-14T05:02:46.060Z,792.00
2019-04-14T05:03:45.026Z,796.00
2019-04-14T05:04:45.978Z,808.00
2019-04-14T05:05:45.098Z,844.00
2019-04-14T05:06:45.932Z,904.00
2019-04-14T05:07:44.993Z,976.00
2019-04-14T05:08:45.554Z,1040.00
2019-04-14T05:09:45.035Z,1084.00
2019-04-14T05:10:45.689Z,1120.00
2019-04-14T05:11:44.906Z,1152.00
2019-04-14T05:12:45.667Z,1176.00
2019-04-14T05:13:44.886Z,1184.00
2019-04-14T05:14:45.577Z,1188.00
2019-04-14T05:15:44.880Z,1184.00
2019-04-14T05:16:46.053Z,1156.00
2019-04-14T05:17:45.288Z,1120.00
2019-04-14T05:18:46.239Z,1080.00
2019-04-14T05:19:45.509Z,1044.00
2019-04-14T05:20:44.888Z,1024.00
2019-04-14T05:21:45.252Z,1024.00
2019-04-14T05:22:44.794Z,1040.00
2019-04-14T05:23:45.356Z,1060.00
2019-04-14T05:24:44.772Z,1076.00
2019-04-14T05:25:45.200Z,1088.00
2019-04-14T05:26:45.933Z,1104.00
2019-04-14T05:27:45.208Z,1120.00
2019-04-14T05:28:45.949Z,1148.00
2019-04-14T05:29:45.102Z,1188.00
2019-04-14T05:30:45.734Z,1236.00
2019-04-14T05:31:44.773Z,1260.00
2019-04-14T05:32:45.517Z,1260.00
2019-04-14T05:33:44.832Z,1256.00
2019-04-14T05:34:45.445Z,1268.00
2019-04-14T05:35:44.666Z,1312.00
2019-04-14T05:36:45.348Z,1376.00
2019-04-14T05:37:44.637Z,1444.00
2019-04-14T05:38:45.009Z,1476.00
2019-04-14T05:39:44.660Z,1468.00
2019-04-14T05:40:45.074Z,1440.00
2019-04-14T05:41:57.075Z,1416.00
2019-04-14T05:42:45.633Z,1424.00
2019-04-14T05:43:50.198Z,1456.00
2019-04-14T05:44:45.628Z,1480.00
2019-04-14T05:45:45.750Z,1496.00
2019-04-14T05:46:44.703Z,1480.00
2019-04-14T05:47:45.694Z,1476.00
2019-04-14T05:48:44.720Z,1476.00
2019-04-14T05:49:48.236Z,1452.00
2019-04-14T05:50:45.494Z,1440.00
2019-04-14T05:51:45.845Z,1420.00
2019-04-14T05:52:44.756Z,1416.00
2019-04-14T05:53:45.757Z,1464.00
2019-04-14T05:54:44.768Z,1576.00
2019-04-14T05:55:44.462Z,1752.00
2019-04-14T05:56:44.725Z,1944.00
2019-04-14T05:57:44.496Z,2060.00
2019-04-14T05:58:44.750Z,2044.00
2019-04-14T05:59:44.441Z,1996.00
2019-04-14T06:00:44.402Z,1976.00
2019-04-14T06:01:44.395Z,1980.00
2019-04-14T06:02:44.479Z,1976.00
2019-04-14T06:03:45.389Z,1988.00
2019-04-14T06:04:44.385Z,2020.00
2019-04-14T06:05:45.014Z,2096.00
2019-04-14T06:06:44.380Z,2224.00
2019-04-14T06:07:44.313Z,2376.00
2019-04-14T06:08:44.350Z,2564.00
2019-04-14T06:09:44.292Z,2844.00
2019-04-14T06:10:44.338Z,3304.00
2019-04-14T06:11:44.340Z,3908.00
2019-04-14T06:12:44.269Z,4364.00
2019-04-14T06:13:44.250Z,4584.00
2019-04-14T06:14:44.241Z,4768.00
2019-04-14T06:15:44.276Z,5236.00
2019-04-14T06:16:44.231Z,6164.00
2019-04-14T06:17:44.207Z,6916.00
2019-04-14T06:18:44.268Z,6948.00
2019-04-14T06:19:44.201Z,6684.00
2019-04-14T06:20:44.178Z,6540.00
2019-04-14T06:21:44.177Z,6680.00
2019-04-14T06:22:44.155Z,6964.00
2019-04-14T06:23:44.247Z,7132.00
2019-04-14T06:24:44.153Z,7000.00
2019-04-14T06:25:44.185Z,6676.00
2019-04-14T06:26:44.127Z,6344.00
2019-04-14T06:27:44.154Z,6140.00
2019-04-14T06:28:44.113Z,6048.00
2019-04-14T06:29:44.083Z,6016.00
2019-04-14T06:30:44.075Z,6132.00
2019-04-14T06:31:44.074Z,6440.00
2019-04-14T06:32:44.071Z,6728.00
2019-04-14T06:33:44.040Z,6940.00
2019-04-14T06:34:44.030Z,6964.00
2019-04-14T06:35:44.019Z,7164.00
2019-04-14T06:36:44.032Z,7304.00
2019-04-14T06:37:43.997Z,7392.00
2019-04-14T06:38:44.192Z,7388.00
2019-04-14T06:39:43.999Z,7384.00
2019-04-14T06:40:43.967Z,7492.00
2019-04-14T06:41:43.970Z,7808.00
2019-04-14T06:42:43.953Z,8244.00
2019-04-14T06:43:49.194Z,8520.00
2019-04-14T06:44:45.158Z,8428.00
2019-04-14T06:45:43.913Z,7868.00
2019-04-14T06:46:43.965Z,7168.00
2019-04-14T06:47:43.894Z,6480.00
2019-04-14T06:48:43.926Z,6060.00
2019-04-14T06:49:49.264Z,5900.00
2019-04-14T06:50:46.411Z,6080.00
2019-04-14T06:51:43.867Z,6536.00
2019-04-14T06:52:43.960Z,7100.00
2019-04-14T06:53:43.826Z,7544.00
2019-04-14T06:54:43.831Z,7732.00
2019-04-14T06:55:43.807Z,7768.00
2019-04-14T06:56:43.874Z,7748.00
2019-04-14T06:57:43.853Z,7776.00
2019-04-14T06:58:43.775Z,7888.00
2019-04-14T06:59:43.765Z,8112.00
2019-04-14T07:00:43.826Z,8404.00
2019-04-14T07:01:43.963Z,8716.00
2019-04-14T07:02:45.479Z,9136.00
2019-04-14T07:03:43.721Z,9752.00
2019-04-14T07:04:43.765Z,10476.00
2019-04-14T07:05:43.749Z,10828.00
2019-04-14T07:06:43.711Z,10692.00
2019-04-14T07:07:43.719Z,10716.00
2019-04-14T07:08:43.754Z,10912.00
2019-04-14T07:09:43.687Z,10852.00
2019-04-14T07:10:43.696Z,10004.00
2019-04-14T07:11:43.644Z,8856.00
2019-04-14T07:12:43.702Z,7728.00
2019-04-14T07:13:47.964Z,6812.00
2019-04-14T07:14:43.670Z,6332.00
2019-04-14T07:15:43.610Z,6224.00
2019-04-14T07:16:43.597Z,6396.00
2019-04-14T07:17:43.643Z,6924.00
2019-04-14T07:18:43.567Z,7636.00
2019-04-14T07:19:43.564Z,8208.00
2019-04-14T07:20:43.591Z,8416.00
2019-04-14T07:21:43.595Z,8340.00
2019-04-14T07:22:43.586Z,8064.00
2019-04-14T07:23:43.587Z,7916.00
2019-04-14T07:24:43.539Z,7776.00
2019-04-14T07:25:43.600Z,7672.00
2019-04-14T07:26:43.674Z,7888.00
2019-04-14T07:27:43.652Z,8012.00
2019-04-14T07:28:55.962Z,8176.00
2019-04-14T07:29:44.461Z,8604.00
2019-04-14T07:30:43.464Z,8904.00
2019-04-14T07:31:43.436Z,9172.00
2019-04-14T07:32:43.454Z,9396.00
2019-04-14T07:33:43.472Z,9892.00
2019-04-14T07:34:43.399Z,10648.00
2019-04-14T07:35:43.395Z,11320.00
2019-04-14T07:36:43.374Z,11512.00
2019-04-14T07:37:43.389Z,10892.00
2019-04-14T07:38:43.461Z,10336.00
2019-04-14T07:39:43.351Z,9668.00
2019-04-14T07:40:43.384Z,9256.00
2019-04-14T07:41:43.350Z,9128.00
2019-04-14T07:42:43.347Z,9320.00
2019-04-14T07:43:43.325Z,9612.00
2019-04-14T07:44:43.322Z,9928.00
2019-04-14T07:45:43.280Z,10280.00
2019-04-14T07:46:43.270Z,10560.00
2019-04-14T07:47:43.367Z,10756.00
2019-04-14T07:48:43.248Z,10988.00
2019-04-14T07:49:43.237Z,11172.00
2019-04-14T07:50:43.308Z,11628.00
2019-04-14T07:51:43.231Z,12160.00
2019-04-14T07:52:43.218Z,12652.00
2019-04-14T07:53:43.213Z,13008.00
2019-04-14T07:54:43.185Z,12780.00
2019-04-14T07:55:43.246Z,12128.00
2019-04-14T07:56:43.248Z,11660.00
2019-04-14T07:57:43.186Z,11352.00
2019-04-14T07:58:43.149Z,11096.00
2019-04-14T07:59:43.141Z,10768.00
2019-04-14T08:00:43.312Z,10280.00
2019-04-14T08:01:43.148Z,9692.00
2019-04-14T08:02:43.116Z,9028.00
2019-04-14T08:03:43.212Z,8404.00
2019-04-14T08:04:43.078Z,8036.00
2019-04-14T08:05:43.069Z,8032.00
2019-04-14T08:06:43.070Z,8432.00
2019-04-14T08:07:43.072Z,9352.00
2019-04-14T08:08:43.036Z,10584.00
2019-04-14T08:09:43.029Z,11528.00
2019-04-14T08:10:43.116Z,12156.00
2019-04-14T08:11:43.018Z,12584.00
2019-04-14T08:12:42.994Z,12928.00
2019-04-14T08:13:43.014Z,13104.00
2019-04-14T08:14:42.983Z,13452.00
2019-04-14T08:15:42.960Z,13580.00
2019-04-14T08:16:43.019Z,13572.00
2019-04-14T08:17:43.744Z,13464.00
2019-04-14T08:18:42.965Z,13156.00
2019-04-14T08:19:42.929Z,12816.00
2019-04-14T08:20:42.921Z,12600.00
2019-04-14T08:21:42.923Z,12380.00
2019-04-14T08:22:42.907Z,12432.00
2019-04-14T08:23:42.924Z,12904.00
2019-04-14T08:24:42.930Z,13484.00
2019-04-14T08:25:42.909Z,13880.00
2019-04-14T08:26:42.849Z,13924.00
2019-04-14T08:27:42.866Z,13736.00
2019-04-14T08:28:42.829Z,13496.00
2019-04-14T08:29:42.828Z,13516.00
2019-04-14T08:30:42.799Z,13904.00
2019-04-14T08:31:42.787Z,14464.00
2019-04-14T08:32:42.779Z,15000.00
2019-04-14T08:33:42.785Z,15248.00
2019-04-14T08:34:42.760Z,15244.00
2019-04-14T08:35:42.808Z,15612.00
2019-04-14T08:36:42.752Z,16512.00
2019-04-14T08:37:42.724Z,17536.00
2019-04-14T08:38:42.740Z,18272.00
2019-04-14T08:39:42.700Z,18336.00
2019-04-14T08:40:42.695Z,18176.00
2019-04-14T08:41:42.722Z,18240.00
2019-04-14T08:42:42.695Z,18144.00
2019-04-14T08:43:42.687Z,17952.00
2019-04-14T08:44:42.658Z,17600.00
2019-04-14T08:45:42.658Z,17120.00
2019-04-14T08:46:42.630Z,16864.00
2019-04-14T08:47:42.682Z,16640.00
2019-04-14T08:48:42.625Z,16204.00
2019-04-14T08:49:42.602Z,16252.00
2019-04-14T08:50:42.605Z,16768.00
2019-04-14T08:51:42.575Z,17472.00
2019-04-14T08:52:42.564Z,18560.00
2019-04-14T08:53:42.651Z,20288.00
2019-04-14T08:54:42.555Z,22432.00
2019-04-14T08:55:42.546Z,24032.00
2019-04-14T08:56:42.535Z,24704.00
2019-04-14T08:57:42.513Z,24800.00
2019-04-14T08:58:42.509Z,24000.00
2019-04-14T08:59:42.521Z,22784.00
2019-04-14T09:00:42.488Z,21632.00
2019-04-14T09:01:42.466Z,20384.00
2019-04-14T09:02:42.461Z,19552.00
2019-04-14T09:03:42.466Z,19648.00
2019-04-14T09:04:42.435Z,19936.00
2019-04-14T09:05:42.449Z,19360.00
2019-04-14T09:06:42.432Z,18304.00
2019-04-14T09:07:42.423Z,17536.00
2019-04-14T09:08:42.520Z,16384.00
2019-04-14T09:09:42.384Z,15504.00
2019-04-14T09:10:42.377Z,15568.00
2019-04-14T09:11:42.366Z,15780.00
2019-04-14T09:12:42.375Z,15752.00
2019-04-14T09:13:42.393Z,14624.00
2019-04-14T09:14:42.325Z,13656.00
2019-04-14T09:15:42.340Z,13560.00
2019-04-14T09:16:42.364Z,14248.00
2019-04-14T09:17:42.296Z,14948.00
2019-04-14T09:18:42.675Z,15224.00
2019-04-14T09:19:42.276Z,15244.00
2019-04-14T09:20:51.650Z,15232.00
2019-04-14T09:21:43.375Z,15236.00
2019-04-14T09:22:42.283Z,15708.00
2019-04-14T09:23:42.250Z,15824.00
2019-04-14T09:24:42.251Z,14808.00
2019-04-14T09:25:42.211Z,13896.00
2019-04-14T09:26:42.198Z,13532.00
2019-04-14T09:27:42.245Z,13816.00
2019-04-14T09:28:42.205Z,14404.00
2019-04-14T09:29:42.183Z,14364.00
2019-04-14T09:30:42.178Z,13760.00
2019-04-14T09:31:42.148Z,13100.00
2019-04-14T09:32:42.155Z,12604.00
2019-04-14T09:33:42.151Z,12228.00
2019-04-14T09:34:42.198Z,12196.00
2019-04-14T09:35:42.110Z,12460.00
2019-04-14T09:36:42.117Z,12812.00
2019-04-14T09:37:42.084Z,12892.00
2019-04-14T09:38:42.097Z,12744.00
2019-04-14T09:39:42.071Z,12472.00
2019-04-14T09:40:42.059Z,12232.00
2019-04-14T09:41:42.099Z,12268.00
2019-04-14T09:42:42.031Z,12576.00
2019-04-14T09:43:42.042Z,13132.00
2019-04-14T09:44:42.022Z,13860.00
2019-04-14T09:45:42.028Z,14592.00
2019-04-14T09:46:42.024Z,15188.00
2019-04-14T09:47:42.007Z,15540.00
2019-04-14T09:48:43.056Z,15732.00
2019-04-14T09:49:41.969Z,15800.00
2019-04-14T09:50:41.945Z,15140.00
2019-04-14T09:51:41.932Z,14056.00
2019-04-14T09:52:41.940Z,13472.00
2019-04-14T09:53:41.944Z,13584.00
2019-04-14T09:54:41.926Z,14068.00
2019-04-14T09:55:41.902Z,14172.00
2019-04-14T09:56:41.879Z,14248.00
2019-04-14T09:57:41.872Z,14144.00
2019-04-14T09:58:41.864Z,13660.00
2019-04-14T09:59:41.916Z,13040.00
2019-04-14T10:00:41.930Z,12496.00
2019-04-14T10:01:41.843Z,11992.00
2019-04-14T10:02:41.818Z,11604.00
2019-04-14T10:03:41.840Z,11400.00
2019-04-14T10:04:41.814Z,11228.00
2019-04-14T10:05:41.791Z,11144.00
2019-04-14T10:06:41.819Z,11604.00
2019-04-14T10:07:41.775Z,11700.00
2019-04-14T10:08:41.755Z,11456.00
2019-04-14T10:09:41.797Z,10832.00
2019-04-14T10:10:41.809Z,10044.00
2019-04-14T10:11:48.639Z,9624.00
2019-04-14T10:12:42.752Z,9800.00
2019-04-14T10:13:41.720Z,10276.00
2019-04-14T10:14:41.733Z,10736.00
2019-04-14T10:15:41.679Z,11104.00
2019-04-14T10:16:41.712Z,11504.00
2019-04-14T10:17:41.654Z,11872.00
2019-04-14T10:18:41.682Z,12596.00
2019-04-14T10:19:41.694Z,13928.00
2019-04-14T10:20:41.632Z,16040.00
2019-04-14T10:21:41.629Z,18400.00
2019-04-14T10:22:41.605Z,19584.00
2019-04-14T10:23:41.641Z,19840.00
2019-04-14T10:24:41.737Z,19776.00
2019-04-14T10:25:41.643Z,19296.00
2019-04-14T10:26:41.561Z,19008.00
2019-04-14T10:27:41.584Z,18848.00
2019-04-14T10:28:41.537Z,18848.00
2019-04-14T10:29:41.561Z,18944.00
2019-04-14T10:30:41.530Z,19424.00
2019-04-14T10:31:41.519Z,20544.00
2019-04-14T10:32:41.745Z,22400.00
2019-04-14T10:33:41.507Z,22336.00
2019-04-14T10:34:41.506Z,20736.00
2019-04-14T10:35:41.463Z,20448.00
2019-04-14T10:36:41.479Z,20032.00
2019-04-14T10:37:41.447Z,18720.00
2019-04-14T10:38:42.470Z,18304.00
2019-04-14T10:39:41.444Z,18336.00
2019-04-14T10:40:41.413Z,17728.00
2019-04-14T10:41:41.776Z,17024.00
2019-04-14T10:42:41.390Z,16576.00
2019-04-14T10:43:41.379Z,16120.00
2019-04-14T10:44:41.422Z,16152.00
2019-04-14T10:45:41.402Z,16576.00
2019-04-14T10:46:41.348Z,17376.00
2019-04-14T10:47:41.341Z,18400.00
2019-04-14T10:48:41.325Z,19616.00
2019-04-14T10:49:41.349Z,21024.00
2019-04-14T10:50:41.391Z,22112.00
2019-04-14T10:51:41.319Z,22944.00
2019-04-14T10:52:41.313Z,23296.00
2019-04-14T10:53:41.276Z,23168.00
2019-04-14T10:54:41.355Z,22976.00
2019-04-14T10:55:41.260Z,22848.00
2019-04-14T10:56:41.378Z,23072.00
2019-04-14T10:57:41.362Z,23200.00
2019-04-14T10:58:41.219Z,23008.00
2019-04-14T10:59:41.280Z,22944.00
2019-04-14T11:00:41.202Z,23744.00
2019-04-14T11:01:41.189Z,24448.00
2019-04-14T11:02:41.263Z,24800.00
2019-04-14T11:03:41.389Z,25024.00
2019-04-14T11:04:41.217Z,25472.00
2019-04-14T11:05:41.154Z,25952.00
2019-04-14T11:06:41.139Z,25184.00
2019-04-14T11:07:41.138Z,23232.00
2019-04-14T11:08:41.154Z,20896.00
2019-04-14T11:09:41.203Z,19072.00
2019-04-14T11:10:41.107Z,18944.00
2019-04-14T11:11:41.081Z,18784.00
2019-04-14T11:12:41.081Z,18976.00
2019-04-14T11:13:41.063Z,19552.00
2019-04-14T11:14:41.043Z,19488.00
2019-04-14T11:15:41.322Z,19136.00
2019-04-14T11:16:41.028Z,19968.00
2019-04-14T11:17:41.015Z,21600.00
2019-04-14T11:18:41.000Z,22880.00
2019-04-14T11:19:41.004Z,24640.00
2019-04-14T11:20:40.988Z,25984.00
2019-04-14T11:21:42.879Z,25504.00
2019-04-14T11:22:40.971Z,23840.00
2019-04-14T11:23:41.034Z,20640.00
2019-04-14T11:24:40.953Z,17856.00
2019-04-14T11:25:40.934Z,15696.00
2019-04-14T11:26:40.930Z,15048.00
2019-04-14T11:27:40.905Z,15140.00
2019-04-14T11:28:40.893Z,15184.00
2019-04-14T11:29:40.881Z,14296.00
2019-04-14T11:30:40.939Z,12868.00
2019-04-14T11:31:40.860Z,11828.00
2019-04-14T11:32:40.856Z,11360.00
2019-04-14T11:33:40.870Z,10852.00
2019-04-14T11:34:40.829Z,10712.00
2019-04-14T11:35:40.867Z,11000.00
2019-04-14T11:36:40.855Z,11112.00
2019-04-14T11:37:40.801Z,11312.00
2019-04-14T11:38:40.788Z,11568.00
2019-04-14T11:39:40.777Z,11964.00
2019-04-14T11:40:40.801Z,11948.00
2019-04-14T11:41:40.758Z,12688.00
2019-04-14T11:42:51.854Z,13688.00
2019-04-14T11:43:41.810Z,13716.00
2019-04-14T11:44:40.778Z,13520.00
2019-04-14T11:45:40.728Z,13776.00
2019-04-14T11:46:40.726Z,14072.00
2019-04-14T11:47:40.710Z,13600.00
2019-04-14T11:48:40.697Z,12868.00
2019-04-14T11:49:40.766Z,12100.00
2019-04-14T11:50:40.694Z,11604.00
2019-04-14T11:51:40.702Z,11288.00
2019-04-14T11:52:40.697Z,11048.00
2019-04-14T11:53:40.640Z,11404.00
2019-04-14T11:54:40.705Z,11772.00
2019-04-14T11:55:40.706Z,12228.00
2019-04-14T11:56:40.777Z,12740.00
2019-04-14T11:57:40.654Z,13068.00
2019-04-14T11:58:40.576Z,13220.00
2019-04-14T11:59:40.602Z,13480.00
2019-04-14T12:00:40.561Z,13740.00
2019-04-14T12:01:40.545Z,13276.00
2019-04-14T12:02:40.586Z,12396.00
2019-04-14T12:03:40.527Z,12000.00
2019-04-14T12:04:40.508Z,11708.00
2019-04-14T12:05:40.510Z,11596.00
2019-04-14T12:06:40.510Z,11576.00
2019-04-14T12:07:40.497Z,11776.00
2019-04-14T12:08:40.569Z,12096.00
2019-04-14T12:09:40.459Z,12152.00
2019-04-14T12:10:40.483Z,12136.00
2019-04-14T12:11:40.451Z,12584.00
2019-04-14T12:12:40.445Z,13200.00
2019-04-14T12:13:40.414Z,12320.00
2019-04-14T12:14:40.499Z,11060.00
2019-04-14T12:15:40.449Z,10116.00
2019-04-14T12:16:40.407Z,8944.00
2019-04-14T12:17:40.375Z,7660.00
2019-04-14T12:18:40.406Z,6788.00
2019-04-14T12:19:40.358Z,6432.00
2019-04-14T12:20:40.415Z,6416.00
2019-04-14T12:21:40.340Z,7140.00
2019-04-14T12:22:40.317Z,8328.00
2019-04-14T12:23:40.325Z,8012.00
2019-04-14T12:24:40.334Z,7844.00
2019-04-14T12:25:40.299Z,8096.00
2019-04-14T12:26:40.290Z,8676.00
2019-04-14T12:27:40.335Z,8784.00
2019-04-14T12:28:40.515Z,8896.00
2019-04-14T12:29:41.205Z,9780.00
2019-04-14T12:30:40.261Z,10848.00
2019-04-14T12:31:40.232Z,11996.00